Aérodrome :







RETROUVEZ-NOUS SUR...

 
LOGIN :

S'inscrire | Disclaimer

   EN    FR    IT 

 









Légende :    VFR   VFR Marginal   IFR   IFR Intensif   IFR Très Intensif
Visi : 
Plafond : 
>= 8 km
>= 3000ft
5 à 8 km
1000 à 3000 ft
1500m à 5 km
500 à 1000 ft
800 à 1500m
200 à 500 ft
< 800m
< 200 ft
Symboles :   Orages  Brouillard  Fortes neiges  Fortes précipitations  Vent > 20 kt






- Altitude de l'aérodrome : 489 ft


KHUL - Houlton International

DERNIER METAR :
  • 251053Z AUTO 20008G15KT 10SM CLR 08/02 A3024 RMK AO2 SLP243 T00780022

METARs EXPIRÉS :
  • 250953Z AUTO 18005KT 10SM CLR 05/00 A3024 RMK AO2 SLP243 T00500000
  • 250853Z AUTO 19005KT 10SM CLR 05/M01 A3024 RMK AO2 SLP242 T00501011 50000

TAF KHUL
Valide du 25 à 06h jusqu'au 26 à 06h UTC


250543Z 2506/2606 19008KT P6SM FEW200
FM251700 20010G17KT P6SM BKN200
FM252300 19011KT P6SM BKN100
FM260100 20010KT P6SM BKN050
FM260300 20009KT P6SM OVC025
FM260500 20009KT P6SM OVC015
FIR KZBW / Amérique du Nord



MET'MAP, la Météo Aéronautique d'un coup d'oeil ! - Copyright ORBIFLY Décembre 2007 - Disclaimer

ORBIFLY MET'MAP TEAM :

Programmation & Développement : Alexandra Zaïnal
Sur une idée originale de : Baudouin d'Aumeries
Assistance à la programmation : Marc-Olivier Méhu
Soutien technique & logistique : Manuel Goepfert

Contact : metmap@orbifly.com




SOURCES & CREDITS :

   NOAA